sensor_id;sensor_type;location;lat;lon;timestamp;temperature;humidity
18260;DHT22;9256;52.236;5.712;2023-05-20T00:01:55;10.70;99.90
18260;DHT22;9256;52.236;5.712;2023-05-20T00:04:22;10.70;99.90
18260;DHT22;9256;52.236;5.712;2023-05-20T00:06:49;10.80;99.90
18260;DHT22;9256;52.236;5.712;2023-05-20T00:09:17;10.80;99.90
18260;DHT22;9256;52.236;5.712;2023-05-20T00:11:45;10.70;99.90
18260;DHT22;9256;52.236;5.712;2023-05-20T00:14:11;10.60;99.90
18260;DHT22;9256;52.236;5.712;2023-05-20T00:16:38;10.50;99.90
18260;DHT22;9256;52.236;5.712;2023-05-20T00:19:06;10.40;99.90
18260;DHT22;9256;52.236;5.712;2023-05-20T00:21:32;10.30;99.90
18260;DHT22;9256;52.236;5.712;2023-05-20T00:24:00;10.30;99.90
18260;DHT22;9256;52.236;5.712;2023-05-20T00:26:28;10.30;99.90
18260;DHT22;9256;52.236;5.712;2023-05-20T00:28:55;10.40;99.90
18260;DHT22;9256;52.236;5.712;2023-05-20T00:31:22;10.40;99.90
18260;DHT22;9256;52.236;5.712;2023-05-20T00:33:49;10.20;99.90
18260;DHT22;9256;52.236;5.712;2023-05-20T00:36:16;10.20;99.90
18260;DHT22;9256;52.236;5.712;2023-05-20T00:38:43;10.30;99.90
18260;DHT22;9256;52.236;5.712;2023-05-20T00:41:10;10.30;99.90
18260;DHT22;9256;52.236;5.712;2023-05-20T00:43:38;10.30;99.90
18260;DHT22;9256;52.236;5.712;2023-05-20T00:46:06;10.30;99.90
18260;DHT22;9256;52.236;5.712;2023-05-20T00:48:38;10.20;99.90
18260;DHT22;9256;52.236;5.712;2023-05-20T00:51:05;10.10;99.90
18260;DHT22;9256;52.236;5.712;2023-05-20T00:53:33;10.20;99.90
18260;DHT22;9256;52.236;5.712;2023-05-20T00:56:00;10.20;99.90
18260;DHT22;9256;52.236;5.712;2023-05-20T00:58:28;10.20;99.90
18260;DHT22;9256;52.236;5.712;2023-05-20T01:00:56;10.10;99.90
18260;DHT22;9256;52.236;5.712;2023-05-20T01:03:23;10.10;99.90
18260;DHT22;9256;52.236;5.712;2023-05-20T01:05:50;10.20;99.90
18260;DHT22;9256;52.236;5.712;2023-05-20T01:08:17;10.10;99.90
18260;DHT22;9256;52.236;5.712;2023-05-20T01:10:46;10.10;99.90
18260;DHT22;9256;52.236;5.712;2023-05-20T01:13:18;10.10;99.90
18260;DHT22;9256;52.236;5.712;2023-05-20T01:15:47;10.10;99.90
18260;DHT22;9256;52.236;5.712;2023-05-20T01:18:16;10.10;99.90
18260;DHT22;9256;52.236;5.712;2023-05-20T01:20:46;10.00;99.90
18260;DHT22;9256;52.236;5.712;2023-05-20T01:23:16;10.00;99.90
18260;DHT22;9256;52.236;5.712;2023-05-20T01:25:43;10.00;99.90
18260;DHT22;9256;52.236;5.712;2023-05-20T01:28:10;10.00;99.90
18260;DHT22;9256;52.236;5.712;2023-05-20T01:30:45;10.00;99.90
18260;DHT22;9256;52.236;5.712;2023-05-20T01:33:14;9.90;99.90
18260;DHT22;9256;52.236;5.712;2023-05-20T01:35:44;9.90;99.90
18260;DHT22;9256;52.236;5.712;2023-05-20T01:38:12;9.90;99.90
18260;DHT22;9256;52.236;5.712;2023-05-20T01:40:43;10.00;99.90
18260;DHT22;9256;52.236;5.712;2023-05-20T01:43:10;10.00;99.90
18260;DHT22;9256;52.236;5.712;2023-05-20T01:45:40;9.90;99.90
18260;DHT22;9256;52.236;5.712;2023-05-20T01:48:09;9.80;99.90
18260;DHT22;9256;52.236;5.712;2023-05-20T01:50:37;9.80;99.90
18260;DHT22;9256;52.236;5.712;2023-05-20T01:53:04;9.80;99.90
18260;DHT22;9256;52.236;5.712;2023-05-20T01:55:33;9.90;99.90
18260;DHT22;9256;52.236;5.712;2023-05-20T01:58:01;9.80;99.90
18260;DHT22;9256;52.236;5.712;2023-05-20T02:00:28;9.70;99.90
18260;DHT22;9256;52.236;5.712;2023-05-20T02:02:55;9.70;99.90
18260;DHT22;9256;52.236;5.712;2023-05-20T02:05:22;9.70;99.90
18260;DHT22;9256;52.236;5.712;2023-05-20T02:07:48;9.80;99.90
18260;DHT22;9256;52.236;5.712;2023-05-20T02:10:15;9.70;99.90
18260;DHT22;9256;52.236;5.712;2023-05-20T02:12:42;9.70;99.90
18260;DHT22;9256;52.236;5.712;2023-05-20T02:15:12;9.70;99.90
18260;DHT22;9256;52.236;5.712;2023-05-20T02:17:39;9.80;99.90
18260;DHT22;9256;52.236;5.712;2023-05-20T02:20:08;9.70;99.90
18260;DHT22;9256;52.236;5.712;2023-05-20T02:22:36;9.80;99.90
18260;DHT22;9256;52.236;5.712;2023-05-20T02:25:03;9.80;99.90
18260;DHT22;9256;52.236;5.712;2023-05-20T02:27:30;9.80;99.90
18260;DHT22;9256;52.236;5.712;2023-05-20T02:29:57;9.70;99.90
18260;DHT22;9256;52.236;5.712;2023-05-20T02:32:25;9.60;99.90
18260;DHT22;9256;52.236;5.712;2023-05-20T02:34:53;9.60;99.90
18260;DHT22;9256;52.236;5.712;2023-05-20T02:37:20;9.60;99.90
18260;DHT22;9256;52.236;5.712;2023-05-20T02:39:47;9.60;99.90
18260;DHT22;9256;52.236;5.712;2023-05-20T02:42:14;9.50;99.90
18260;DHT22;9256;52.236;5.712;2023-05-20T02:44:41;9.50;99.90
18260;DHT22;9256;52.236;5.712;2023-05-20T02:47:08;9.50;99.90
18260;DHT22;9256;52.236;5.712;2023-05-20T02:49:36;9.50;99.90
18260;DHT22;9256;52.236;5.712;2023-05-20T02:52:04;9.50;99.90
18260;DHT22;9256;52.236;5.712;2023-05-20T02:54:31;9.50;99.90
18260;DHT22;9256;52.236;5.712;2023-05-20T02:56:57;9.50;99.90
18260;DHT22;9256;52.236;5.712;2023-05-20T02:59:25;9.40;99.90
18260;DHT22;9256;52.236;5.712;2023-05-20T03:01:52;9.50;99.90
18260;DHT22;9256;52.236;5.712;2023-05-20T03:04:18;9.50;99.90
18260;DHT22;9256;52.236;5.712;2023-05-20T03:06:47;9.40;99.90
18260;DHT22;9256;52.236;5.712;2023-05-20T03:09:16;9.40;99.90
18260;DHT22;9256;52.236;5.712;2023-05-20T03:11:43;9.50;99.90
18260;DHT22;9256;52.236;5.712;2023-05-20T03:14:10;9.60;99.90
18260;DHT22;9256;52.236;5.712;2023-05-20T03:16:38;9.60;99.90
18260;DHT22;9256;52.236;5.712;2023-05-20T03:19:06;9.60;99.90
18260;DHT22;9256;52.236;5.712;2023-05-20T03:21:33;9.60;99.90
18260;DHT22;9256;52.236;5.712;2023-05-20T03:24:01;9.60;99.90
18260;DHT22;9256;52.236;5.712;2023-05-20T03:26:28;9.60;99.90
18260;DHT22;9256;52.236;5.712;2023-05-20T03:28:57;9.70;99.90
18260;DHT22;9256;52.236;5.712;2023-05-20T03:31:24;9.50;99.90
18260;DHT22;9256;52.236;5.712;2023-05-20T03:33:51;9.60;99.90
18260;DHT22;9256;52.236;5.712;2023-05-20T03:36:18;9.60;99.90
18260;DHT22;9256;52.236;5.712;2023-05-20T03:38:45;9.60;99.90
18260;DHT22;9256;52.236;5.712;2023-05-20T03:41:13;9.60;99.90
18260;DHT22;9256;52.236;5.712;2023-05-20T03:43:41;9.60;99.90
18260;DHT22;9256;52.236;5.712;2023-05-20T03:46:07;9.60;99.90
18260;DHT22;9256;52.236;5.712;2023-05-20T03:48:35;9.60;99.90
18260;DHT22;9256;52.236;5.712;2023-05-20T03:51:01;9.70;99.90
18260;DHT22;9256;52.236;5.712;2023-05-20T03:53:28;9.70;99.90
18260;DHT22;9256;52.236;5.712;2023-05-20T03:55:55;9.70;99.90
18260;DHT22;9256;52.236;5.712;2023-05-20T03:58:23;9.70;99.90
18260;DHT22;9256;52.236;5.712;2023-05-20T04:00:50;9.70;99.90
18260;DHT22;9256;52.236;5.712;2023-05-20T04:03:17;9.80;99.90
18260;DHT22;9256;52.236;5.712;2023-05-20T04:05:44;9.90;99.90
18260;DHT22;9256;52.236;5.712;2023-05-20T04:08:11;9.90;99.90
18260;DHT22;9256;52.236;5.712;2023-05-20T04:10:40;9.90;99.90
18260;DHT22;9256;52.236;5.712;2023-05-20T04:13:08;9.90;99.90
18260;DHT22;9256;52.236;5.712;2023-05-20T04:15:37;9.80;99.90
18260;DHT22;9256;52.236;5.712;2023-05-20T04:18:04;9.80;99.90
18260;DHT22;9256;52.236;5.712;2023-05-20T04:20:31;9.80;99.90
18260;DHT22;9256;52.236;5.712;2023-05-20T04:22:58;9.80;99.90
18260;DHT22;9256;52.236;5.712;2023-05-20T04:25:25;9.90;99.90
18260;DHT22;9256;52.236;5.712;2023-05-20T04:27:52;9.90;99.90
18260;DHT22;9256;52.236;5.712;2023-05-20T04:30:19;10.00;99.90
18260;DHT22;9256;52.236;5.712;2023-05-20T04:32:49;9.90;99.90
18260;DHT22;9256;52.236;5.712;2023-05-20T04:35:16;10.00;99.90
18260;DHT22;9256;52.236;5.712;2023-05-20T04:37:43;10.10;99.90
18260;DHT22;9256;52.236;5.712;2023-05-20T04:40:13;10.20;99.90
18260;DHT22;9256;52.236;5.712;2023-05-20T04:42:40;10.10;99.90
18260;DHT22;9256;52.236;5.712;2023-05-20T04:45:08;10.20;99.90
18260;DHT22;9256;52.236;5.712;2023-05-20T04:47:35;10.10;99.90
18260;DHT22;9256;52.236;5.712;2023-05-20T04:50:07;10.10;99.90
18260;DHT22;9256;52.236;5.712;2023-05-20T04:52:35;10.20;99.90
18260;DHT22;9256;52.236;5.712;2023-05-20T04:55:02;10.30;99.90
18260;DHT22;9256;52.236;5.712;2023-05-20T04:57:29;10.30;99.90
18260;DHT22;9256;52.236;5.712;2023-05-20T04:59:58;10.30;99.90
18260;DHT22;9256;52.236;5.712;2023-05-20T05:02:25;10.30;99.90
18260;DHT22;9256;52.236;5.712;2023-05-20T05:04:52;10.40;99.90
18260;DHT22;9256;52.236;5.712;2023-05-20T05:07:21;10.50;99.90
18260;DHT22;9256;52.236;5.712;2023-05-20T05:09:47;10.50;99.90
18260;DHT22;9256;52.236;5.712;2023-05-20T05:12:14;10.70;99.90
18260;DHT22;9256;52.236;5.712;2023-05-20T05:14:41;10.80;99.90
18260;DHT22;9256;52.236;5.712;2023-05-20T05:17:08;10.90;99.90
18260;DHT22;9256;52.236;5.712;2023-05-20T05:19:35;11.00;99.90
18260;DHT22;9256;52.236;5.712;2023-05-20T05:22:02;11.10;99.90
18260;DHT22;9256;52.236;5.712;2023-05-20T05:24:30;11.20;99.90
18260;DHT22;9256;52.236;5.712;2023-05-20T05:26:57;11.30;99.90
18260;DHT22;9256;52.236;5.712;2023-05-20T05:29:24;11.50;99.90
18260;DHT22;9256;52.236;5.712;2023-05-20T05:31:51;11.60;99.90
18260;DHT22;9256;52.236;5.712;2023-05-20T05:34:18;11.70;99.90
18260;DHT22;9256;52.236;5.712;2023-05-20T05:36:45;11.80;99.90
18260;DHT22;9256;52.236;5.712;2023-05-20T05:39:12;11.90;99.90
18260;DHT22;9256;52.236;5.712;2023-05-20T05:41:40;12.10;99.90
18260;DHT22;9256;52.236;5.712;2023-05-20T05:44:07;12.20;99.90
18260;DHT22;9256;52.236;5.712;2023-05-20T05:46:34;12.40;99.90
18260;DHT22;9256;52.236;5.712;2023-05-20T05:49:01;12.50;99.90
18260;DHT22;9256;52.236;5.712;2023-05-20T05:51:27;12.60;99.90
18260;DHT22;9256;52.236;5.712;2023-05-20T05:53:55;12.70;99.90
18260;DHT22;9256;52.236;5.712;2023-05-20T05:56:22;12.80;99.90
18260;DHT22;9256;52.236;5.712;2023-05-20T05:58:50;13.00;99.90
18260;DHT22;9256;52.236;5.712;2023-05-20T06:01:17;13.10;99.90
18260;DHT22;9256;52.236;5.712;2023-05-20T06:03:44;13.10;99.90
18260;DHT22;9256;52.236;5.712;2023-05-20T06:06:11;13.20;99.90
18260;DHT22;9256;52.236;5.712;2023-05-20T06:08:38;13.20;99.90
18260;DHT22;9256;52.236;5.712;2023-05-20T06:11:05;13.30;99.90
18260;DHT22;9256;52.236;5.712;2023-05-20T06:13:32;13.50;99.90
18260;DHT22;9256;52.236;5.712;2023-05-20T06:16:00;13.70;99.90
18260;DHT22;9256;52.236;5.712;2023-05-20T06:18:27;13.60;99.90
18260;DHT22;9256;52.236;5.712;2023-05-20T06:20:55;13.70;99.90
18260;DHT22;9256;52.236;5.712;2023-05-20T06:23:22;13.80;99.90
18260;DHT22;9256;52.236;5.712;2023-05-20T06:25:49;14.00;99.90
18260;DHT22;9256;52.236;5.712;2023-05-20T06:28:16;14.20;99.90
18260;DHT22;9256;52.236;5.712;2023-05-20T06:30:43;14.20;99.90
18260;DHT22;9256;52.236;5.712;2023-05-20T06:33:11;14.20;99.90
18260;DHT22;9256;52.236;5.712;2023-05-20T06:35:38;14.30;99.90
18260;DHT22;9256;52.236;5.712;2023-05-20T06:38:05;14.40;99.90
18260;DHT22;9256;52.236;5.712;2023-05-20T06:40:32;14.50;99.90
18260;DHT22;9256;52.236;5.712;2023-05-20T06:42:59;14.60;99.90
18260;DHT22;9256;52.236;5.712;2023-05-20T06:45:26;14.70;99.90
18260;DHT22;9256;52.236;5.712;2023-05-20T06:47:53;14.90;99.90
18260;DHT22;9256;52.236;5.712;2023-05-20T06:50:21;14.70;99.90
18260;DHT22;9256;52.236;5.712;2023-05-20T06:52:49;15.00;99.90
18260;DHT22;9256;52.236;5.712;2023-05-20T06:55:16;14.90;99.90
18260;DHT22;9256;52.236;5.712;2023-05-20T06:57:43;15.00;99.90
18260;DHT22;9256;52.236;5.712;2023-05-20T07:00:11;15.10;99.90
18260;DHT22;9256;52.236;5.712;2023-05-20T07:02:38;15.30;99.90
18260;DHT22;9256;52.236;5.712;2023-05-20T07:05:06;15.50;99.90
18260;DHT22;9256;52.236;5.712;2023-05-20T07:07:34;15.10;99.90
18260;DHT22;9256;52.236;5.712;2023-05-20T07:10:01;15.20;99.90
18260;DHT22;9256;52.236;5.712;2023-05-20T07:12:30;15.30;99.90
18260;DHT22;9256;52.236;5.712;2023-05-20T07:14:57;15.40;99.90
18260;DHT22;9256;52.236;5.712;2023-05-20T07:17:24;15.70;99.90
18260;DHT22;9256;52.236;5.712;2023-05-20T07:19:51;15.70;99.90
18260;DHT22;9256;52.236;5.712;2023-05-20T07:22:18;15.70;99.90
18260;DHT22;9256;52.236;5.712;2023-05-20T07:24:46;15.70;99.90
18260;DHT22;9256;52.236;5.712;2023-05-20T07:27:13;15.90;99.90
18260;DHT22;9256;52.236;5.712;2023-05-20T07:29:40;16.20;99.90
18260;DHT22;9256;52.236;5.712;2023-05-20T07:32:08;16.40;99.90
18260;DHT22;9256;52.236;5.712;2023-05-20T07:34:35;16.70;99.90
18260;DHT22;9256;52.236;5.712;2023-05-20T07:37:02;16.50;99.90
18260;DHT22;9256;52.236;5.712;2023-05-20T07:39:28;16.50;99.90
18260;DHT22;9256;52.236;5.712;2023-05-20T07:41:57;16.80;99.90
18260;DHT22;9256;52.236;5.712;2023-05-20T07:44:24;16.80;99.90
18260;DHT22;9256;52.236;5.712;2023-05-20T07:46:51;16.70;99.90
18260;DHT22;9256;52.236;5.712;2023-05-20T07:49:18;16.80;99.90
18260;DHT22;9256;52.236;5.712;2023-05-20T07:51:44;17.10;99.90
18260;DHT22;9256;52.236;5.712;2023-05-20T07:54:12;17.30;99.90
18260;DHT22;9256;52.236;5.712;2023-05-20T07:56:39;17.40;99.90
18260;DHT22;9256;52.236;5.712;2023-05-20T07:59:08;17.50;99.90
18260;DHT22;9256;52.236;5.712;2023-05-20T08:01:34;17.60;99.90
18260;DHT22;9256;52.236;5.712;2023-05-20T08:04:02;17.50;99.90
18260;DHT22;9256;52.236;5.712;2023-05-20T08:06:29;17.60;99.90
18260;DHT22;9256;52.236;5.712;2023-05-20T08:08:57;17.60;99.90
18260;DHT22;9256;52.236;5.712;2023-05-20T08:11:24;17.60;99.90
18260;DHT22;9256;52.236;5.712;2023-05-20T08:13:51;17.60;99.90
18260;DHT22;9256;52.236;5.712;2023-05-20T08:16:20;17.60;99.90
18260;DHT22;9256;52.236;5.712;2023-05-20T08:18:47;17.80;99.90
18260;DHT22;9256;52.236;5.712;2023-05-20T08:21:14;17.70;99.90
18260;DHT22;9256;52.236;5.712;2023-05-20T08:23:41;17.60;99.90
18260;DHT22;9256;52.236;5.712;2023-05-20T08:26:08;17.80;99.90
18260;DHT22;9256;52.236;5.712;2023-05-20T08:28:35;17.90;99.90
18260;DHT22;9256;52.236;5.712;2023-05-20T08:31:02;18.00;99.90
18260;DHT22;9256;52.236;5.712;2023-05-20T08:33:30;18.10;99.90
18260;DHT22;9256;52.236;5.712;2023-05-20T08:35:57;18.30;99.90
18260;DHT22;9256;52.236;5.712;2023-05-20T08:38:25;18.50;99.90
18260;DHT22;9256;52.236;5.712;2023-05-20T08:40:54;18.50;99.90
18260;DHT22;9256;52.236;5.712;2023-05-20T08:43:21;18.50;99.90
18260;DHT22;9256;52.236;5.712;2023-05-20T08:45:49;18.40;99.90
18260;DHT22;9256;52.236;5.712;2023-05-20T08:48:17;18.40;99.90
18260;DHT22;9256;52.236;5.712;2023-05-20T08:50:48;18.50;99.90
18260;DHT22;9256;52.236;5.712;2023-05-20T08:53:15;18.60;99.90
18260;DHT22;9256;52.236;5.712;2023-05-20T08:55:45;18.80;99.90
18260;DHT22;9256;52.236;5.712;2023-05-20T08:58:14;18.90;99.90
18260;DHT22;9256;52.236;5.712;2023-05-20T09:00:42;18.70;99.90
18260;DHT22;9256;52.236;5.712;2023-05-20T09:03:09;18.80;99.90
18260;DHT22;9256;52.236;5.712;2023-05-20T09:05:36;18.90;99.90
18260;DHT22;9256;52.236;5.712;2023-05-20T09:08:08;18.90;99.90
18260;DHT22;9256;52.236;5.712;2023-05-20T09:10:37;19.00;99.90
18260;DHT22;9256;52.236;5.712;2023-05-20T09:13:04;18.80;99.90
18260;DHT22;9256;52.236;5.712;2023-05-20T09:15:32;18.60;99.90
18260;DHT22;9256;52.236;5.712;2023-05-20T09:17:59;18.60;99.90
18260;DHT22;9256;52.236;5.712;2023-05-20T09:20:27;18.40;99.90
18260;DHT22;9256;52.236;5.712;2023-05-20T09:22:58;18.30;99.90
18260;DHT22;9256;52.236;5.712;2023-05-20T09:25:29;18.20;99.90
18260;DHT22;9256;52.236;5.712;2023-05-20T09:27:57;18.40;99.90
18260;DHT22;9256;52.236;5.712;2023-05-20T09:30:24;18.20;99.90
18260;DHT22;9256;52.236;5.712;2023-05-20T09:32:54;18.30;99.90
18260;DHT22;9256;52.236;5.712;2023-05-20T09:35:21;18.80;99.90
18260;DHT22;9256;52.236;5.712;2023-05-20T09:37:51;19.00;99.90
18260;DHT22;9256;52.236;5.712;2023-05-20T09:40:23;19.00;99.90
18260;DHT22;9256;52.236;5.712;2023-05-20T09:42:53;18.90;99.90
18260;DHT22;9256;52.236;5.712;2023-05-20T09:45:22;18.60;99.90
18260;DHT22;9256;52.236;5.712;2023-05-20T09:47:50;18.70;99.90
18260;DHT22;9256;52.236;5.712;2023-05-20T09:50:18;18.70;99.90
18260;DHT22;9256;52.236;5.712;2023-05-20T09:52:47;18.90;99.90
18260;DHT22;9256;52.236;5.712;2023-05-20T09:55:15;19.30;99.90
18260;DHT22;9256;52.236;5.712;2023-05-20T09:57:42;19.60;99.90
18260;DHT22;9256;52.236;5.712;2023-05-20T10:00:12;19.70;99.90
18260;DHT22;9256;52.236;5.712;2023-05-20T10:02:42;19.70;99.90
18260;DHT22;9256;52.236;5.712;2023-05-20T10:05:15;19.10;99.90
18260;DHT22;9256;52.236;5.712;2023-05-20T10:08:01;18.70;99.90
18260;DHT22;9256;52.236;5.712;2023-05-20T10:10:39;19.00;99.90
18260;DHT22;9256;52.236;5.712;2023-05-20T10:13:17;19.30;99.90
18260;DHT22;9256;52.236;5.712;2023-05-20T10:15:54;18.90;99.90
18260;DHT22;9256;52.236;5.712;2023-05-20T10:18:32;19.10;99.90
18260;DHT22;9256;52.236;5.712;2023-05-20T10:21:02;19.00;99.90
18260;DHT22;9256;52.236;5.712;2023-05-20T10:23:30;18.90;99.90
18260;DHT22;9256;52.236;5.712;2023-05-20T10:25:57;19.10;99.90
18260;DHT22;9256;52.236;5.712;2023-05-20T10:28:28;19.30;99.90
18260;DHT22;9256;52.236;5.712;2023-05-20T10:30:58;19.00;99.90
18260;DHT22;9256;52.236;5.712;2023-05-20T10:33:26;19.20;99.90
18260;DHT22;9256;52.236;5.712;2023-05-20T10:35:53;19.60;99.90
18260;DHT22;9256;52.236;5.712;2023-05-20T10:38:20;20.00;99.90
18260;DHT22;9256;52.236;5.712;2023-05-20T10:40:47;20.00;99.90
18260;DHT22;9256;52.236;5.712;2023-05-20T10:43:15;19.70;99.90
18260;DHT22;9256;52.236;5.712;2023-05-20T10:45:50;19.20;99.90
18260;DHT22;9256;52.236;5.712;2023-05-20T10:48:25;19.50;99.90
18260;DHT22;9256;52.236;5.712;2023-05-20T10:50:57;19.50;99.90
18260;DHT22;9256;52.236;5.712;2023-05-20T10:53:25;19.90;99.90
18260;DHT22;9256;52.236;5.712;2023-05-20T10:55:53;20.40;99.90
18260;DHT22;9256;52.236;5.712;2023-05-20T10:58:21;20.30;99.90
18260;DHT22;9256;52.236;5.712;2023-05-20T11:00:49;20.60;99.90
18260;DHT22;9256;52.236;5.712;2023-05-20T11:03:17;20.80;99.90
18260;DHT22;9256;52.236;5.712;2023-05-20T11:05:48;20.80;99.90
18260;DHT22;9256;52.236;5.712;2023-05-20T11:08:16;20.90;99.90
18260;DHT22;9256;52.236;5.712;2023-05-20T11:10:43;20.80;99.90
18260;DHT22;9256;52.236;5.712;2023-05-20T11:13:12;21.10;99.90
18260;DHT22;9256;52.236;5.712;2023-05-20T11:15:41;21.20;99.90
18260;DHT22;9256;52.236;5.712;2023-05-20T11:18:10;21.20;99.90
18260;DHT22;9256;52.236;5.712;2023-05-20T11:20:38;21.00;99.90
18260;DHT22;9256;52.236;5.712;2023-05-20T11:23:10;21.00;99.90
18260;DHT22;9256;52.236;5.712;2023-05-20T11:25:38;20.40;99.90
18260;DHT22;9256;52.236;5.712;2023-05-20T11:28:08;20.20;99.90
18260;DHT22;9256;52.236;5.712;2023-05-20T11:30:35;19.90;99.90
18260;DHT22;9256;52.236;5.712;2023-05-20T11:33:03;19.50;99.90
18260;DHT22;9256;52.236;5.712;2023-05-20T11:35:31;19.90;99.90
18260;DHT22;9256;52.236;5.712;2023-05-20T11:38:01;20.40;99.90
18260;DHT22;9256;52.236;5.712;2023-05-20T11:40:31;20.00;99.90
18260;DHT22;9256;52.236;5.712;2023-05-20T11:42:59;20.00;99.90
18260;DHT22;9256;52.236;5.712;2023-05-20T11:45:26;20.40;99.90
18260;DHT22;9256;52.236;5.712;2023-05-20T11:48:00;20.20;99.90
18260;DHT22;9256;52.236;5.712;2023-05-20T11:50:32;20.60;99.90
18260;DHT22;9256;52.236;5.712;2023-05-20T11:52:59;21.00;99.90
18260;DHT22;9256;52.236;5.712;2023-05-20T11:55:30;21.10;99.90
18260;DHT22;9256;52.236;5.712;2023-05-20T11:57:58;21.30;99.90
18260;DHT22;9256;52.236;5.712;2023-05-20T12:00:25;21.20;99.90
18260;DHT22;9256;52.236;5.712;2023-05-20T12:02:52;21.50;99.90
18260;DHT22;9256;52.236;5.712;2023-05-20T12:05:19;21.50;99.90
18260;DHT22;9256;52.236;5.712;2023-05-20T12:07:46;22.00;99.90
18260;DHT22;9256;52.236;5.712;2023-05-20T12:10:13;22.20;99.90
18260;DHT22;9256;52.236;5.712;2023-05-20T12:12:43;22.60;99.90
18260;DHT22;9256;52.236;5.712;2023-05-20T12:15:10;21.70;99.90
18260;DHT22;9256;52.236;5.712;2023-05-20T12:17:47;22.10;99.90
18260;DHT22;9256;52.236;5.712;2023-05-20T12:20:15;22.10;99.90
18260;DHT22;9256;52.236;5.712;2023-05-20T12:22:43;22.40;99.90
18260;DHT22;9256;52.236;5.712;2023-05-20T12:25:11;22.00;99.90
18260;DHT22;9256;52.236;5.712;2023-05-20T12:27:41;22.10;99.90
18260;DHT22;9256;52.236;5.712;2023-05-20T12:30:14;22.60;99.90
18260;DHT22;9256;52.236;5.712;2023-05-20T12:32:41;23.00;99.90
18260;DHT22;9256;52.236;5.712;2023-05-20T12:35:09;23.50;99.90
18260;DHT22;9256;52.236;5.712;2023-05-20T12:37:37;22.10;99.90
18260;DHT22;9256;52.236;5.712;2023-05-20T12:40:05;21.90;99.90
18260;DHT22;9256;52.236;5.712;2023-05-20T12:42:33;21.60;99.90
18260;DHT22;9256;52.236;5.712;2023-05-20T12:45:02;21.50;99.90
18260;DHT22;9256;52.236;5.712;2023-05-20T12:47:30;21.80;99.90
18260;DHT22;9256;52.236;5.712;2023-05-20T12:49:57;21.90;99.90
18260;DHT22;9256;52.236;5.712;2023-05-20T12:52:25;22.00;99.90
18260;DHT22;9256;52.236;5.712;2023-05-20T12:54:52;22.00;99.90
18260;DHT22;9256;52.236;5.712;2023-05-20T12:57:20;22.20;99.90
18260;DHT22;9256;52.236;5.712;2023-05-20T12:59:47;21.80;99.90
18260;DHT22;9256;52.236;5.712;2023-05-20T13:02:15;21.40;99.90
18260;DHT22;9256;52.236;5.712;2023-05-20T13:04:42;21.60;99.90
18260;DHT22;9256;52.236;5.712;2023-05-20T13:07:09;21.90;99.90
18260;DHT22;9256;52.236;5.712;2023-05-20T13:09:36;22.40;99.90
18260;DHT22;9256;52.236;5.712;2023-05-20T13:12:03;21.90;99.90
18260;DHT22;9256;52.236;5.712;2023-05-20T13:14:31;22.00;99.90
18260;DHT22;9256;52.236;5.712;2023-05-20T13:16:57;22.00;99.90
18260;DHT22;9256;52.236;5.712;2023-05-20T13:19:26;21.70;99.90
18260;DHT22;9256;52.236;5.712;2023-05-20T13:21:53;22.40;99.90
18260;DHT22;9256;52.236;5.712;2023-05-20T13:24:20;23.50;99.90
18260;DHT22;9256;52.236;5.712;2023-05-20T13:26:47;24.90;99.90
18260;DHT22;9256;52.236;5.712;2023-05-20T13:29:14;24.20;99.90
18260;DHT22;9256;52.236;5.712;2023-05-20T13:31:41;23.40;99.90
18260;DHT22;9256;52.236;5.712;2023-05-20T13:34:08;23.50;99.90
18260;DHT22;9256;52.236;5.712;2023-05-20T13:36:37;23.70;99.90
18260;DHT22;9256;52.236;5.712;2023-05-20T13:39:04;24.20;99.90
18260;DHT22;9256;52.236;5.712;2023-05-20T13:41:31;25.20;99.90
18260;DHT22;9256;52.236;5.712;2023-05-20T13:43:58;25.60;99.90
18260;DHT22;9256;52.236;5.712;2023-05-20T13:46:25;24.50;99.90
18260;DHT22;9256;52.236;5.712;2023-05-20T13:48:51;23.90;99.90
18260;DHT22;9256;52.236;5.712;2023-05-20T13:51:18;23.20;99.90
18260;DHT22;9256;52.236;5.712;2023-05-20T13:53:47;23.60;99.90
18260;DHT22;9256;52.236;5.712;2023-05-20T13:56:14;24.60;99.90
18260;DHT22;9256;52.236;5.712;2023-05-20T13:58:40;24.80;99.90
18260;DHT22;9256;52.236;5.712;2023-05-20T14:01:07;23.40;99.90
18260;DHT22;9256;52.236;5.712;2023-05-20T14:03:37;23.40;99.90
18260;DHT22;9256;52.236;5.712;2023-05-20T14:06:05;23.40;99.90
18260;DHT22;9256;52.236;5.712;2023-05-20T14:08:32;23.60;99.90
18260;DHT22;9256;52.236;5.712;2023-05-20T14:11:00;23.80;99.90
18260;DHT22;9256;52.236;5.712;2023-05-20T14:13:27;24.30;99.90
18260;DHT22;9256;52.236;5.712;2023-05-20T14:15:54;23.60;99.90
18260;DHT22;9256;52.236;5.712;2023-05-20T14:18:21;24.80;99.90
18260;DHT22;9256;52.236;5.712;2023-05-20T14:20:48;25.80;99.90
18260;DHT22;9256;52.236;5.712;2023-05-20T14:23:15;25.80;99.90
18260;DHT22;9256;52.236;5.712;2023-05-20T14:25:42;25.80;99.90
18260;DHT22;9256;52.236;5.712;2023-05-20T14:28:10;24.40;99.90
18260;DHT22;9256;52.236;5.712;2023-05-20T14:30:37;22.40;99.90
18260;DHT22;9256;52.236;5.712;2023-05-20T14:33:04;22.50;99.90
18260;DHT22;9256;52.236;5.712;2023-05-20T14:35:31;22.40;99.90
18260;DHT22;9256;52.236;5.712;2023-05-20T14:37:58;22.50;99.90
18260;DHT22;9256;52.236;5.712;2023-05-20T14:40:25;22.90;99.90
18260;DHT22;9256;52.236;5.712;2023-05-20T14:42:52;23.20;99.90
18260;DHT22;9256;52.236;5.712;2023-05-20T14:45:21;22.30;99.90
18260;DHT22;9256;52.236;5.712;2023-05-20T14:47:48;22.60;99.90
18260;DHT22;9256;52.236;5.712;2023-05-20T14:50:15;22.20;99.90
18260;DHT22;9256;52.236;5.712;2023-05-20T14:52:42;22.20;99.90
18260;DHT22;9256;52.236;5.712;2023-05-20T14:55:08;22.10;99.90
18260;DHT22;9256;52.236;5.712;2023-05-20T14:57:35;22.10;99.90
18260;DHT22;9256;52.236;5.712;2023-05-20T15:00:03;22.30;99.90
18260;DHT22;9256;52.236;5.712;2023-05-20T15:02:31;22.60;99.90
18260;DHT22;9256;52.236;5.712;2023-05-20T15:04:58;22.00;99.90
18260;DHT22;9256;52.236;5.712;2023-05-20T15:07:25;21.10;99.90
18260;DHT22;9256;52.236;5.712;2023-05-20T15:09:52;20.70;99.90
18260;DHT22;9256;52.236;5.712;2023-05-20T15:12:19;20.60;99.90
18260;DHT22;9256;52.236;5.712;2023-05-20T15:14:46;20.40;99.90
18260;DHT22;9256;52.236;5.712;2023-05-20T15:17:13;20.70;99.90
18260;DHT22;9256;52.236;5.712;2023-05-20T15:19:42;20.60;99.90
18260;DHT22;9256;52.236;5.712;2023-05-20T15:22:09;20.60;99.90
18260;DHT22;9256;52.236;5.712;2023-05-20T15:24:36;20.80;99.90
18260;DHT22;9256;52.236;5.712;2023-05-20T15:27:03;20.70;99.90
18260;DHT22;9256;52.236;5.712;2023-05-20T15:29:30;20.90;99.90
18260;DHT22;9256;52.236;5.712;2023-05-20T15:31:57;21.00;99.90
18260;DHT22;9256;52.236;5.712;2023-05-20T15:34:24;21.10;99.90
18260;DHT22;9256;52.236;5.712;2023-05-20T15:36:53;20.90;99.90
18260;DHT22;9256;52.236;5.712;2023-05-20T15:39:20;20.70;99.90
18260;DHT22;9256;52.236;5.712;2023-05-20T15:41:46;20.60;99.90
18260;DHT22;9256;52.236;5.712;2023-05-20T15:44:14;20.40;99.90
18260;DHT22;9256;52.236;5.712;2023-05-20T15:46:42;20.40;99.90
18260;DHT22;9256;52.236;5.712;2023-05-20T15:49:09;20.40;99.90
18260;DHT22;9256;52.236;5.712;2023-05-20T15:51:37;20.40;99.90
18260;DHT22;9256;52.236;5.712;2023-05-20T15:54:05;20.20;99.90